Time;durP1;ratioP1;P1;durP2;ratioP2;P2;SDS_P1;SDS_P2;PMS_P1;PMS_P2;Temp;Humidity;BMP_temperature;BMP_pressure;BME280_temperature;BME280_humidity;BME280_pressure;Samples;Min_cycle;Max_cycle;Signal;HPM_P1;HPM_P2
2022/01/16 00:04:05;;;;;;;15.88;10.10;;;8.20;94.80;;;;;;5039087;28;20222;-65
2022/01/16 00:04:55;;;;;;;12.02;8.80;;;8.20;94.80;;;;;;5043296;28;20315;-66
2022/01/16 00:07:23;;;;;;;14.63;8.00;;;8.20;94.70;;;;;;5052206;28;20242;-65
2022/01/16 00:09:49;;;;;;;12.60;7.72;;;8.20;94.50;;;;;;5051426;28;20472;-65
2022/01/16 00:12:22;;;;;;;12.48;8.38;;;8.10;94.40;;;;;;5051805;28;20678;-65
2022/01/16 00:14:51;;;;;;;13.90;8.30;;;8.10;94.20;;;;;;5046378;28;20680;-64
2022/01/16 00:17:19;;;;;;;12.65;7.43;;;8.10;94.40;;;;;;5045009;28;20218;-65
2022/01/16 00:19:46;;;;;;;16.60;9.00;;;8.10;94.50;;;;;;5043181;28;20620;-65
2022/01/16 00:22:15;;;;;;;22.00;10.77;;;8.10;94.40;;;;;;5051540;28;20219;-64
2022/01/16 00:24:43;;;;;;;15.80;9.13;;;8.00;94.00;;;;;;5051254;28;20252;-66
2022/01/16 00:27:10;;;;;;;16.23;10.38;;;7.90;94.20;;;;;;5042257;28;20257;-66
2022/01/16 00:29:36;;;;;;;15.85;9.90;;;7.90;94.10;;;;;;5051452;28;20685;-64
2022/01/16 00:32:06;;;;;;;12.38;8.80;;;7.90;94.20;;;;;;5051807;28;20666;-65
2022/01/16 00:34:32;;;;;;;18.80;9.85;;;7.90;94.30;;;;;;5051738;28;20228;-64
2022/01/16 00:36:59;;;;;;;18.98;9.50;;;7.90;94.40;;;;;;5051406;28;20593;-65
2022/01/16 00:39:26;;;;;;;16.90;9.75;;;7.90;94.60;;;;;;5051691;28;20247;-65
2022/01/16 00:41:53;;;;;;;24.50;9.38;;;7.90;94.50;;;;;;5051350;28;20238;-65
2022/01/16 00:44:21;;;;;;;19.88;8.90;;;7.90;94.60;;;;;;5055236;28;20223;-65
2022/01/16 00:46:47;;;;;;;15.18;9.48;;;8.00;94.60;;;;;;5054804;28;20684;-65
2022/01/16 00:49:16;;;;;;;19.55;9.93;;;8.00;94.60;;;;;;5055188;28;20226;-66
2022/01/16 00:51:42;;;;;;;13.55;8.70;;;8.00;94.60;;;;;;5054679;28;20227;-64
2022/01/16 00:54:10;;;;;;;18.95;8.32;;;8.00;94.70;;;;;;5055093;28;20230;-66
2022/01/16 00:56:37;;;;;;;13.10;7.72;;;7.90;94.60;;;;;;5055095;28;20242;-65
2022/01/16 00:59:03;;;;;;;12.15;7.18;;;8.00;94.70;;;;;;5054794;28;20229;-65
2022/01/16 01:01:30;;;;;;;12.13;7.35;;;8.00;94.70;;;;;;5054778;28;20688;-65
2022/01/16 01:03:57;;;;;;;15.07;9.20;;;8.00;95.10;;;;;;5054634;28;20232;-65
2022/01/16 01:06:25;;;;;;;15.35;8.60;;;7.90;94.70;;;;;;5055013;28;20248;-65
2022/01/16 01:08:52;;;;;;;10.52;8.10;;;8.00;94.80;;;;;;5054275;28;20248;-65
2022/01/16 01:11:25;;;;;;;14.45;7.47;;;8.00;94.70;;;;;;5054830;28;20260;-65
2022/01/16 01:14:14;;;;;;;11.88;7.25;;;8.00;94.70;;;;;;5054581;28;20591;-65
2022/01/16 01:16:51;;;;;;;13.48;7.00;;;8.00;94.80;;;;;;5051612;28;20807;-65
2022/01/16 01:19:19;;;;;;;16.30;9.60;;;7.90;94.70;;;;;;5057429;28;20239;-65
2022/01/16 01:21:47;;;;;;;11.00;6.05;;;7.90;94.90;;;;;;5054192;28;20233;-65
2022/01/16 01:24:14;;;;;;;11.27;7.63;;;7.90;94.60;;;;;;5054436;28;20584;-65
2022/01/16 01:26:49;;;;;;;17.95;9.88;;;7.90;94.70;;;;;;5046420;28;20231;-66
2022/01/16 01:29:19;;;;;;;12.98;7.97;;;7.90;94.60;;;;;;5053589;28;20260;-65
2022/01/16 01:31:46;;;;;;;17.10;7.95;;;7.90;94.60;;;;;;5053972;28;20317;-66
2022/01/16 01:34:13;;;;;;;11.70;6.78;;;7.90;94.60;;;;;;5054344;28;20218;-65
2022/01/16 01:36:40;;;;;;;11.90;7.57;;;7.90;94.50;;;;;;5054338;28;20352;-65
2022/01/16 01:39:08;;;;;;;14.90;7.38;;;7.90;94.60;;;;;;5054095;28;20301;-65
2022/01/16 01:41:36;;;;;;;15.23;7.82;;;7.90;94.70;;;;;;5054296;28;20234;-65
2022/01/16 01:52:16;;;;;;;11.27;8.43;;;7.80;94.80;;;;;;5042215;28;20281;-65
2022/01/16 01:54:44;;;;;;;17.65;8.32;;;7.80;94.90;;;;;;5053914;28;20235;-65
2022/01/16 01:57:11;;;;;;;16.65;7.07;;;7.80;94.90;;;;;;5053687;28;20246;-65
2022/01/16 01:59:39;;;;;;;12.02;8.10;;;7.80;94.80;;;;;;5053789;28;20234;-65
2022/01/16 02:02:07;;;;;;;11.23;6.70;;;7.80;94.80;;;;;;5053405;28;20224;-65
2022/01/16 02:04:34;;;;;;;16.17;6.55;;;7.80;94.70;;;;;;5053859;28;20245;-65
2022/01/16 02:07:01;;;;;;;14.68;6.82;;;7.80;94.70;;;;;;5053323;28;20230;-65
2022/01/16 02:09:28;;;;;;;12.77;7.55;;;7.80;94.60;;;;;;5053550;28;20226;-65
2022/01/16 02:11:56;;;;;;;13.23;7.38;;;7.70;94.50;;;;;;5053280;28;20232;-65
2022/01/16 02:14:29;;;;;;;9.18;5.60;;;7.70;94.60;;;;;;5053659;28;20593;-65
2022/01/16 02:28:08;;;;;;;9.65;5.90;;;7.60;94.80;;;;;;5053513;28;20229;-66
2022/01/16 02:34:29;;;;;;;14.90;5.95;;;7.50;95.00;;;;;;5051633;28;20221;-65
2022/01/16 02:36:18;;;;;;;10.65;6.07;;;7.50;95.00;;;;;;5042047;28;20248;-65
2022/01/16 02:38:48;;;;;;;13.23;6.80;;;7.50;95.20;;;;;;5053030;28;20225;-65
2022/01/16 02:41:15;;;;;;;11.32;6.45;;;7.50;95.10;;;;;;5052709;28;20630;-65
2022/01/16 02:43:47;;;;;;;13.30;5.85;;;7.60;95.20;;;;;;5053220;28;20676;-65
2022/01/16 02:48:58;;;;;;;7.57;5.28;;;7.60;95.10;;;;;;5040905;28;20237;-65
2022/01/16 02:51:28;;;;;;;13.02;5.93;;;7.60;95.00;;;;;;5052372;28;20222;-65
2022/01/16 02:53:56;;;;;;;14.68;5.63;;;7.60;95.00;;;;;;5053031;28;20226;-65
2022/01/16 02:56:24;;;;;;;10.65;5.70;;;7.60;95.00;;;;;;5052548;28;20573;-65
2022/01/16 02:58:52;;;;;;;11.57;6.30;;;7.60;95.00;;;;;;5052874;28;20217;-66
2022/01/16 03:01:19;;;;;;;9.60;6.30;;;7.60;95.00;;;;;;5052195;28;20231;-65
2022/01/16 03:03:46;;;;;;;15.63;7.43;;;7.60;94.80;;;;;;5052771;28;20241;-65
2022/01/16 03:06:13;;;;;;;11.30;6.15;;;7.50;94.60;;;;;;5051846;28;20280;-65
2022/01/16 03:08:40;;;;;;;17.25;7.78;;;7.50;94.80;;;;;;5052604;28;20665;-65
2022/01/16 03:11:16;;;;;;;14.50;7.03;;;7.40;95.00;;;;;;5052594;28;20232;-65
2022/01/16 03:13:47;;;;;;;8.73;6.43;;;7.40;95.10;;;;;;5052579;28;20320;-65
2022/01/16 03:16:14;;;;;;;13.20;6.80;;;7.30;95.00;;;;;;5052576;28;20623;-65
2022/01/16 03:22:02;;;;;;;16.35;6.72;;;7.20;95.20;;;;;;5010601;28;20562;-65
2022/01/16 03:24:33;;;;;;;11.63;7.25;;;7.20;95.20;;;;;;5010604;28;20673;-65
2022/01/16 03:27:03;;;;;;;20.38;7.07;;;7.10;95.40;;;;;;5025349;28;20226;-64
2022/01/16 03:29:31;;;;;;;12.23;7.13;;;7.10;95.40;;;;;;5052023;28;20568;-65
2022/01/16 03:31:59;;;;;;;9.52;6.50;;;7.00;95.60;;;;;;5052532;28;20221;-65
2022/01/16 03:34:26;;;;;;;13.20;5.80;;;7.00;95.70;;;;;;5051982;28;20239;-65
2022/01/16 03:36:53;;;;;;;10.13;4.93;;;7.00;95.60;;;;;;5052297;28;20574;-65
2022/01/16 03:39:21;;;;;;;19.30;6.15;;;6.90;95.60;;;;;;5052085;28;20214;-64
2022/01/16 03:41:48;;;;;;;19.00;5.75;;;6.90;95.80;;;;;;5052104;28;20226;-65
2022/01/16 03:44:20;;;;;;;13.30;5.85;;;6.80;95.60;;;;;;5052448;28;20228;-65
2022/01/16 03:46:47;;;;;;;10.88;5.13;;;6.70;95.70;;;;;;5052156;28;20221;-65
2022/01/16 03:49:15;;;;;;;19.38;6.90;;;6.70;95.90;;;;;;5052315;28;20305;-65
2022/01/16 03:51:44;;;;;;;10.48;6.82;;;6.60;95.80;;;;;;5051724;28;20558;-65
2022/01/16 03:54:14;;;;;;;18.50;6.00;;;6.70;95.80;;;;;;5048278;28;20288;-65
2022/01/16 03:56:41;;;;;;;17.65;6.63;;;6.60;96.00;;;;;;5051820;28;20223;-65
2022/01/16 03:59:10;;;;;;;13.07;5.78;;;6.60;96.00;;;;;;5052175;28;20671;-65
2022/01/16 04:01:38;;;;;;;16.23;7.95;;;6.50;96.00;;;;;;5051607;28;20687;-65
2022/01/16 04:04:06;;;;;;;16.45;7.35;;;6.50;96.00;;;;;;5052265;28;20317;-65
2022/01/16 04:06:34;;;;;;;15.43;8.00;;;6.50;96.20;;;;;;5051674;28;20218;-64
2022/01/16 04:09:02;;;;;;;13.95;7.93;;;6.50;96.20;;;;;;5051987;28;20680;-64
2022/01/16 04:11:30;;;;;;;11.55;6.72;;;6.50;96.30;;;;;;5051570;28;20352;-64
2022/01/16 04:14:05;;;;;;;16.98;6.82;;;6.40;96.30;;;;;;5052147;28;20676;-64
2022/01/16 04:16:33;;;;;;;13.80;6.45;;;6.40;96.20;;;;;;5039552;28;20233;-64
2022/01/16 04:19:01;;;;;;;14.15;6.25;;;6.30;96.30;;;;;;5058317;28;20560;-64
2022/01/16 04:21:29;;;;;;;13.88;5.25;;;6.30;96.30;;;;;;5055474;28;20575;-64
2022/01/16 04:23:57;;;;;;;14.07;6.28;;;6.30;96.30;;;;;;5055778;28;20223;-64
2022/01/16 04:26:25;;;;;;;14.00;5.68;;;6.30;96.30;;;;;;5051603;28;20228;-63
2022/01/16 04:28:53;;;;;;;13.93;6.32;;;6.30;96.50;;;;;;5055211;28;20213;-64
2022/01/16 04:31:19;;;;;;;14.93;5.35;;;6.20;96.30;;;;;;5055684;28;20682;-64
2022/01/16 04:33:46;;;;;;;17.10;5.43;;;6.20;96.40;;;;;;5052603;28;20233;-64
2022/01/16 04:36:15;;;;;;;16.83;6.22;;;6.20;96.40;;;;;;5055543;28;20218;-64
2022/01/16 04:38:45;;;;;;;12.38;5.53;;;6.20;96.40;;;;;;5055154;28;20238;-65
2022/01/16 04:43:56;;;;;;;8.95;5.78;;;6.20;96.40;;;;;;5055165;28;20309;-64
2022/01/16 04:46:25;;;;;;;11.68;6.40;;;6.20;96.50;;;;;;5055388;28;20237;-64
2022/01/16 04:48:53;;;;;;;14.05;6.60;;;6.20;96.50;;;;;;5055001;28;22958;-65
2022/01/16 04:51:22;;;;;;;11.70;6.00;;;6.20;96.50;;;;;;5055127;28;20222;-65
2022/01/16 04:53:49;;;;;;;15.15;5.80;;;6.20;96.40;;;;;;5050665;28;20235;-65
2022/01/16 04:56:16;;;;;;;14.10;6.53;;;6.20;96.50;;;;;;5055261;28;20234;-65
2022/01/16 04:58:43;;;;;;;16.25;5.95;;;6.20;96.60;;;;;;5054758;28;20226;-65
2022/01/16 05:01:11;;;;;;;12.73;4.97;;;6.10;96.60;;;;;;5054914;28;20251;-65
2022/01/16 05:03:38;;;;;;;12.60;4.95;;;6.10;96.60;;;;;;5054738;28;20239;-65
2022/01/16 05:06:06;;;;;;;17.23;6.20;;;6.10;96.60;;;;;;5054976;28;20706;-65
2022/01/16 05:08:34;;;;;;;12.10;5.60;;;6.10;96.80;;;;;;5054907;28;20234;-65
2022/01/16 05:11:01;;;;;;;18.67;6.20;;;6.10;96.80;;;;;;5054262;28;20225;-65
2022/01/16 05:16:34;;;;;;;14.07;5.88;;;6.10;96.80;;;;;;5053365;28;20232;-65
2022/01/16 05:16:37;;;;;;;13.88;5.57;;;6.10;96.70;;;;;;5054461;28;20228;-65
2022/01/16 05:19:06;;;;;;;12.30;5.45;;;6.00;96.80;;;;;;5067694;28;20233;-64
2022/01/16 05:21:33;;;;;;;14.40;5.85;;;6.00;96.70;;;;;;5054209;28;20732;-65
2022/01/16 05:24:03;;;;;;;14.32;5.80;;;6.00;96.90;;;;;;5054835;28;20228;-65
2022/01/16 05:26:30;;;;;;;12.43;6.47;;;5.90;97.00;;;;;;5054081;28;20224;-64
2022/01/16 05:28:57;;;;;;;23.27;7.43;;;5.90;96.90;;;;;;5054031;28;20716;-64
2022/01/16 05:31:25;;;;;;;9.73;6.07;;;5.90;97.00;;;;;;5044787;28;20222;-64
2022/01/16 05:33:51;;;;;;;22.70;6.55;;;5.90;97.10;;;;;;5047045;28;20221;-65
2022/01/16 05:36:20;;;;;;;23.73;6.90;;;5.90;97.10;;;;;;5054489;28;20222;-65
2022/01/16 05:38:47;;;;;;;15.05;5.28;;;5.90;97.00;;;;;;5054292;28;20216;-65
2022/01/16 05:41:18;;;;;;;19.33;6.45;;;5.90;97.10;;;;;;5054259;28;20233;-65
2022/01/16 05:43:45;;;;;;;16.13;6.45;;;5.90;97.20;;;;;;5053640;28;20238;-65
2022/01/16 05:46:12;;;;;;;16.85;7.50;;;5.80;97.30;;;;;;5054356;28;20223;-65
2022/01/16 05:48:38;;;;;;;18.52;6.57;;;5.90;97.40;;;;;;5053749;28;20585;-64
2022/01/16 05:51:05;;;;;;;13.63;6.25;;;5.90;97.30;;;;;;5054003;28;20227;-64
2022/01/16 05:53:32;;;;;;;16.92;7.43;;;5.90;97.30;;;;;;5050384;28;20224;-65
2022/01/16 05:55:59;;;;;;;17.00;6.60;;;5.90;97.50;;;;;;5044886;28;20223;-65
2022/01/16 05:58:27;;;;;;;16.30;8.48;;;5.80;97.40;;;;;;5053557;28;20248;-64
2022/01/16 06:00:54;;;;;;;12.80;7.57;;;5.80;97.50;;;;;;5054084;28;20239;-65
2022/01/16 06:03:21;;;;;;;12.88;6.90;;;5.80;97.50;;;;;;5053762;28;20223;-65
2022/01/16 06:05:48;;;;;;;13.45;7.15;;;5.90;97.50;;;;;;5053851;28;20226;-65
2022/01/16 06:08:14;;;;;;;13.27;8.15;;;5.90;97.50;;;;;;5053844;28;20221;-65
2022/01/16 06:10:42;;;;;;;11.68;6.25;;;5.90;97.50;;;;;;5053211;28;20643;-65
2022/01/16 06:13:09;;;;;;;15.30;7.30;;;5.90;97.50;;;;;;5053773;28;20220;-65
2022/01/16 06:15:40;;;;;;;19.02;6.68;;;5.90;97.60;;;;;;5053213;28;20231;-65
2022/01/16 06:18:07;;;;;;;14.07;7.10;;;6.00;97.60;;;;;;5053317;28;20671;-65
2022/01/16 06:20:34;;;;;;;18.10;9.27;;;6.00;97.50;;;;;;5053307;28;20234;-64
2022/01/16 06:23:01;;;;;;;14.73;9.15;;;6.00;97.60;;;;;;5053456;28;20238;-66
2022/01/16 06:25:29;;;;;;;14.88;7.78;;;5.90;97.50;;;;;;5053211;28;20296;-65
2022/01/16 06:27:55;;;;;;;20.70;9.77;;;5.90;97.70;;;;;;5053385;28;20239;-64
2022/01/16 06:30:22;;;;;;;15.05;8.80;;;5.80;97.70;;;;;;5053314;28;20227;-65
2022/01/16 06:32:50;;;;;;;16.98;8.75;;;5.80;98.10;;;;;;5052888;28;20225;-65
2022/01/16 06:35:17;;;;;;;18.83;10.10;;;5.70;97.90;;;;;;5049065;28;20247;-65
2022/01/16 06:37:45;;;;;;;16.90;9.35;;;5.70;98.00;;;;;;5039342;28;20225;-65
2022/01/16 06:40:13;;;;;;;14.25;9.50;;;5.70;97.90;;;;;;5052443;28;20231;-65
2022/01/16 06:42:41;;;;;;;17.75;8.93;;;5.70;98.10;;;;;;5052933;28;20229;-65
2022/01/16 06:45:10;;;;;;;17.60;8.85;;;5.70;98.20;;;;;;5052982;28;20225;-64
2022/01/16 06:47:36;;;;;;;13.85;9.40;;;5.70;98.20;;;;;;5052705;28;20243;-66
2022/01/16 06:50:07;;;;;;;16.92;10.25;;;5.70;98.20;;;;;;5053073;28;20231;-65
2022/01/16 06:52:34;;;;;;;18.20;9.85;;;5.70;98.30;;;;;;5052665;28;20219;-65
2022/01/16 06:55:01;;;;;;;13.50;9.85;;;5.70;98.30;;;;;;5052556;28;20227;-65
2022/01/16 06:57:28;;;;;;;14.32;9.32;;;5.70;98.40;;;;;;5052650;28;20231;-65
2022/01/16 06:59:54;;;;;;;17.35;10.52;;;5.70;98.20;;;;;;5052798;28;20221;-65
2022/01/16 07:02:22;;;;;;;19.63;10.35;;;5.70;98.20;;;;;;5052836;28;20223;-64
2022/01/16 07:04:49;;;;;;;18.13;11.18;;;5.70;98.40;;;;;;5052379;28;20221;-65
2022/01/16 07:07:17;;;;;;;15.18;10.73;;;5.70;98.60;;;;;;5052721;28;20696;-65
2022/01/16 07:09:44;;;;;;;22.98;12.18;;;5.70;98.60;;;;;;5052119;28;20239;-64
2022/01/16 07:12:11;;;;;;;20.13;11.43;;;5.70;98.70;;;;;;5052892;28;20247;-65
2022/01/16 07:14:38;;;;;;;20.33;14.77;;;5.70;98.60;;;;;;5052228;28;20263;-65
2022/01/16 07:17:05;;;;;;;16.73;12.55;;;5.70;98.90;;;;;;5052638;28;20217;-65
2022/01/16 07:19:32;;;;;;;23.45;16.70;;;5.70;98.60;;;;;;5051934;28;20230;-66
2022/01/16 07:21:59;;;;;;;20.45;13.68;;;5.70;98.70;;;;;;5052561;28;20686;-64
2022/01/16 07:24:27;;;;;;;20.45;13.48;;;5.70;98.60;;;;;;5052505;28;20225;-66
2022/01/16 07:26:54;;;;;;;18.15;11.27;;;5.70;98.70;;;;;;5052212;28;20295;-64
2022/01/16 07:29:21;;;;;;;23.67;11.77;;;5.70;98.70;;;;;;5052341;28;20288;-64
2022/01/16 07:31:48;;;;;;;17.40;11.68;;;5.70;98.80;;;;;;5052037;28;20262;-65
2022/01/16 07:34:15;;;;;;;14.10;11.95;;;5.70;98.90;;;;;;5048337;28;20575;-65
2022/01/16 07:36:42;;;;;;;24.90;13.65;;;5.70;99.00;;;;;;5052011;28;20236;-65
2022/01/16 07:39:08;;;;;;;19.45;11.25;;;5.70;98.90;;;;;;5052291;28;20224;-65
2022/01/16 07:41:37;;;;;;;15.77;11.75;;;5.70;98.90;;;;;;5051894;28;20581;-65
2022/01/16 07:44:04;;;;;;;21.30;12.10;;;5.80;98.90;;;;;;5052337;28;20228;-65
2022/01/16 07:46:31;;;;;;;17.65;12.95;;;5.80;98.90;;;;;;5052073;28;20565;-65
2022/01/16 07:48:58;;;;;;;19.30;12.90;;;5.80;98.80;;;;;;5052328;28;20219;-65
2022/01/16 07:51:25;;;;;;;14.77;11.60;;;5.80;98.70;;;;;;5052794;28;20239;-65
2022/01/16 07:53:53;;;;;;;13.35;11.95;;;5.80;98.90;;;;;;5055867;28;20299;-65
2022/01/16 07:56:19;;;;;;;16.70;12.27;;;5.70;99.00;;;;;;5056332;28;20476;-65
2022/01/16 07:58:48;;;;;;;18.92;13.68;;;5.70;99.10;;;;;;5055855;28;20248;-65
2022/01/16 08:01:14;;;;;;;16.13;12.35;;;5.70;99.10;;;;;;5056184;28;20239;-65
2022/01/16 08:03:41;;;;;;;19.27;13.85;;;5.80;99.20;;;;;;5055730;28;20226;-65
2022/01/16 08:06:10;;;;;;;20.77;14.75;;;5.70;99.20;;;;;;5056323;28;20255;-65
2022/01/16 08:08:37;;;;;;;17.48;12.75;;;5.70;99.20;;;;;;5055586;28;20232;-65
2022/01/16 08:11:04;;;;;;;19.17;13.35;;;5.70;99.10;;;;;;5055876;28;20233;-63
2022/01/16 08:13:31;;;;;;;21.02;12.93;;;5.80;99.40;;;;;;5056082;28;20315;-64
2022/01/16 08:15:59;;;;;;;14.55;12.98;;;5.70;99.20;;;;;;5055749;28;20224;-64
2022/01/16 08:18:29;;;;;;;18.70;12.25;;;5.70;99.30;;;;;;5055685;28;20246;-64
2022/01/16 08:20:56;;;;;;;20.00;13.35;;;5.70;99.30;;;;;;5055454;28;20231;-64
2022/01/16 08:23:24;;;;;;;17.23;12.73;;;5.80;99.40;;;;;;5055753;28;20232;-64
2022/01/16 08:25:51;;;;;;;14.55;13.05;;;5.80;99.30;;;;;;5055332;28;20266;-64
2022/01/16 08:28:18;;;;;;;20.75;14.27;;;5.80;99.30;;;;;;5055941;28;20562;-65
2022/01/16 08:30:45;;;;;;;16.83;13.65;;;5.70;99.50;;;;;;5055007;28;20227;-64
2022/01/16 08:33:13;;;;;;;19.55;13.32;;;5.70;99.60;;;;;;5048329;28;20221;-64
2022/01/16 08:35:40;;;;;;;15.00;12.90;;;5.70;99.60;;;;;;5055223;28;20306;-64
2022/01/16 08:38:07;;;;;;;28.85;15.43;;;5.70;99.60;;;;;;5055541;28;20227;-65
2022/01/16 08:40:33;;;;;;;20.20;14.25;;;5.70;99.60;;;;;;5055333;28;20227;-65
2022/01/16 08:43:07;;;;;;;14.93;12.55;;;5.70;99.70;;;;;;5055309;28;20231;-65
2022/01/16 08:45:34;;;;;;;20.20;14.88;;;5.80;99.60;;;;;;5055403;28;20295;-65
2022/01/16 08:48:00;;;;;;;20.75;13.55;;;5.80;99.60;;;;;;5054746;28;20219;-65
2022/01/16 08:50:29;;;;;;;20.85;13.48;;;5.90;99.60;;;;;;5055078;28;20233;-65
2022/01/16 08:52:55;;;;;;;16.15;12.50;;;5.90;99.60;;;;;;5054799;28;20231;-65
2022/01/16 08:55:22;;;;;;;18.17;13.25;;;5.90;99.40;;;;;;5055195;28;20225;-65
2022/01/16 08:57:49;;;;;;;18.25;12.43;;;5.90;99.50;;;;;;5055004;28;20252;-65
2022/01/16 09:00:16;;;;;;;22.38;15.75;;;6.00;99.40;;;;;;5055050;28;20608;-65
2022/01/16 09:02:43;;;;;;;17.63;14.50;;;6.00;99.30;;;;;;5054387;28;20231;-65
2022/01/16 09:05:11;;;;;;;19.00;14.25;;;6.10;99.60;;;;;;5054635;28;20278;-65
2022/01/16 09:07:39;;;;;;;23.73;14.48;;;6.10;99.60;;;;;;5054503;28;20721;-65
2022/01/16 09:10:08;;;;;;;15.68;13.80;;;6.10;99.40;;;;;;5054719;28;20230;-65
2022/01/16 09:12:36;;;;;;;19.67;13.45;;;6.10;99.40;;;;;;5054896;28;20319;-65
2022/01/16 09:15:04;;;;;;;18.45;13.73;;;6.20;99.50;;;;;;5054639;28;20684;-65
2022/01/16 09:17:30;;;;;;;17.25;13.85;;;6.20;99.50;;;;;;5056017;28;20217;-64
2022/01/16 09:19:57;;;;;;;23.88;15.23;;;6.30;99.50;;;;;;5061030;28;20228;-64
2022/01/16 09:22:24;;;;;;;20.65;14.25;;;6.30;99.50;;;;;;5054422;28;20224;-64
2022/01/16 09:24:52;;;;;;;21.73;14.63;;;6.20;99.40;;;;;;5054362;28;20235;-64
2022/01/16 09:27:19;;;;;;;20.45;13.57;;;6.30;99.50;;;;;;5043046;28;20218;-64
2022/01/16 09:29:46;;;;;;;21.17;15.10;;;6.30;99.50;;;;;;5053994;28;20303;-64
2022/01/16 09:32:13;;;;;;;23.30;14.15;;;6.30;99.40;;;;;;5052474;28;20601;-65
2022/01/16 09:34:40;;;;;;;15.73;12.90;;;6.30;99.50;;;;;;5041819;28;20693;-65
2022/01/16 09:37:09;;;;;;;22.73;13.98;;;6.30;99.40;;;;;;5054324;28;20213;-65
2022/01/16 09:39:35;;;;;;;18.77;15.20;;;6.30;99.30;;;;;;5054318;28;20247;-65
2022/01/16 09:42:05;;;;;;;26.13;16.70;;;6.30;99.30;;;;;;5053907;28;20810;-65
2022/01/16 09:44:34;;;;;;;24.05;18.60;;;6.30;99.60;;;;;;5054112;28;20225;-65
2022/01/16 09:47:01;;;;;;;24.90;17.80;;;6.30;99.60;;;;;;5053949;28;20229;-64
2022/01/16 09:49:28;;;;;;;25.75;16.75;;;6.30;99.90;;;;;;5054048;28;20234;-65
2022/01/16 09:51:54;;;;;;;16.10;13.82;;;6.40;99.70;;;;;;5053466;28;20228;-64
2022/01/16 09:54:22;;;;;;;21.52;16.00;;;6.40;99.70;;;;;;5054061;28;20217;-64
2022/01/16 09:56:49;;;;;;;24.00;15.80;;;6.40;99.80;;;;;;5053402;28;20234;-65
2022/01/16 09:59:18;;;;;;;18.05;14.57;;;6.40;99.70;;;;;;5052980;28;20226;-65
2022/01/16 10:01:45;;;;;;;22.15;15.50;;;6.50;99.70;;;;;;5052525;28;20232;-65
2022/01/16 10:04:29;;;;;;;21.15;15.25;;;6.60;99.70;;;;;;5053583;28;20223;-65
2022/01/16 10:06:57;;;;;;;18.00;14.90;;;6.60;99.70;;;;;;5053550;28;20236;-65
2022/01/16 10:09:24;;;;;;;20.58;15.65;;;6.70;99.70;;;;;;5053993;28;20226;-64
2022/01/16 10:11:56;;;;;;;23.55;16.50;;;6.80;99.70;;;;;;5053428;28;20278;-64
2022/01/16 10:14:30;;;;;;;21.45;16.25;;;6.90;99.40;;;;;;5053909;28;20319;-64
2022/01/16 10:16:58;;;;;;;18.00;16.10;;;6.90;99.50;;;;;;5053403;28;20567;-64
2022/01/16 10:19:27;;;;;;;20.63;15.57;;;6.90;99.50;;;;;;5053778;28;20248;-64
2022/01/16 10:21:54;;;;;;;20.95;15.63;;;6.90;99.30;;;;;;5053170;28;20240;-64
2022/01/16 10:24:24;;;;;;;20.45;15.90;;;7.00;99.20;;;;;;5053640;28;20222;-65
2022/01/16 10:27:12;;;;;;;18.13;15.07;;;7.00;99.40;;;;;;5053349;28;20695;-65
2022/01/16 10:29:43;;;;;;;21.33;16.67;;;6.90;99.20;;;;;;5053685;28;20231;-65
2022/01/16 10:32:15;;;;;;;22.83;18.35;;;6.90;99.20;;;;;;5053218;28;20564;-65
2022/01/16 10:34:43;;;;;;;18.98;15.98;;;6.90;99.40;;;;;;5053482;28;20226;-64
2022/01/16 10:37:21;;;;;;;23.50;17.13;;;6.90;99.50;;;;;;5052944;28;20226;-64
2022/01/16 10:39:57;;;;;;;21.38;17.40;;;6.80;99.50;;;;;;5052976;28;20251;-65
2022/01/16 10:42:24;;;;;;;23.15;18.35;;;6.70;99.60;;;;;;5053545;28;20231;-65
2022/01/16 10:45:05;;;;;;;20.55;17.23;;;6.60;99.90;;;;;;5052905;28;20743;-65
2022/01/16 10:47:35;;;;;;;22.05;16.67;;;6.50;99.90;;;;;;5053189;28;20225;-64
2022/01/16 10:50:09;;;;;;;20.65;16.55;;;6.50;99.90;;;;;;5052723;28;20234;-64
2022/01/16 10:52:52;;;;;;;21.20;17.48;;;6.50;99.90;;;;;;5053176;28;20234;-65
2022/01/16 10:55:25;;;;;;;22.55;16.65;;;6.40;99.90;;;;;;5052923;28;20229;-65
2022/01/16 10:58:01;;;;;;;22.98;17.52;;;6.40;99.90;;;;;;5053046;28;20590;-65
2022/01/16 11:00:29;;;;;;;19.90;16.15;;;6.40;99.90;;;;;;5052724;28;20667;-65
2022/01/16 11:02:59;;;;;;;20.65;16.17;;;6.40;99.90;;;;;;5052923;28;20222;-64
2022/01/16 11:05:28;;;;;;;24.02;16.80;;;6.40;99.90;;;;;;5052465;28;20249;-65
2022/01/16 11:07:59;;;;;;;23.55;17.25;;;6.40;99.90;;;;;;5052880;28;20267;-64
2022/01/16 11:10:28;;;;;;;19.38;15.68;;;6.40;99.90;;;;;;5052260;28;20239;-64
2022/01/16 11:13:00;;;;;;;22.83;15.65;;;6.40;99.90;;;;;;5052780;28;20247;-64
2022/01/16 11:15:30;;;;;;;24.80;17.08;;;6.40;99.90;;;;;;5052375;28;20217;-65
2022/01/16 11:17:58;;;;;;;30.10;18.35;;;6.40;99.90;;;;;;5052806;28;20217;-65
2022/01/16 11:20:29;;;;;;;21.00;17.02;;;6.40;99.90;;;;;;5052305;28;20237;-65
2022/01/16 11:22:59;;;;;;;23.05;17.63;;;6.40;99.90;;;;;;5052644;28;20306;-65
2022/01/16 11:25:33;;;;;;;26.52;17.55;;;6.40;99.90;;;;;;5052322;28;20222;-65
2022/01/16 11:28:02;;;;;;;26.35;17.15;;;6.40;99.90;;;;;;5052313;28;20229;-65
2022/01/16 11:30:32;;;;;;;24.50;17.17;;;6.30;99.90;;;;;;5052245;28;20227;-65
2022/01/16 11:32:59;;;;;;;20.08;15.27;;;6.30;99.90;;;;;;5052564;28;20232;-65
2022/01/16 11:35:27;;;;;;;21.67;16.20;;;6.40;99.90;;;;;;5052225;28;20236;-65
2022/01/16 11:37:54;;;;;;;24.17;18.17;;;6.40;99.90;;;;;;5052508;28;20235;-65
2022/01/16 11:40:29;;;;;;;22.48;17.80;;;6.40;99.90;;;;;;5051952;28;20233;-65
2022/01/16 11:43:16;;;;;;;19.35;16.05;;;6.50;99.90;;;;;;5052287;28;20221;-64
2022/01/16 11:45:49;;;;;;;20.90;15.93;;;6.50;99.90;;;;;;5052869;28;20225;-64
2022/01/16 11:48:19;;;;;;;18.98;14.43;;;6.50;99.90;;;;;;5032327;28;20227;-64
2022/01/16 11:50:47;;;;;;;23.08;17.30;;;6.60;99.90;;;;;;5032474;28;20232;-64
2022/01/16 11:53:47;;;;;;;19.80;16.00;;;6.60;99.90;;;;;;5031864;28;20290;-64
2022/01/16 11:56:49;;;;;;;18.48;16.15;;;6.60;99.90;;;;;;5032027;28;20226;-64
2022/01/16 11:59:18;;;;;;;22.75;16.67;;;6.70;99.90;;;;;;5032177;28;20232;-64
2022/01/16 12:01:48;;;;;;;21.08;16.10;;;6.60;99.90;;;;;;5032402;28;20229;-65
2022/01/16 12:04:44;;;;;;;25.17;18.05;;;6.70;99.90;;;;;;5031991;28;20227;-65
2022/01/16 12:07:47;;;;;;;23.23;17.00;;;6.70;99.90;;;;;;5030123;28;20251;-64
2022/01/16 12:10:29;;;;;;;24.77;17.83;;;6.70;99.90;;;;;;5031986;28;20314;-65
2022/01/16 12:12:56;;;;;;;25.02;18.77;;;6.70;99.90;;;;;;5031726;28;20226;-65
2022/01/16 12:15:23;;;;;;;23.25;19.80;;;6.70;99.90;;;;;;5032223;28;20704;-65
2022/01/16 12:17:51;;;;;;;25.92;19.90;;;6.80;99.90;;;;;;5032393;28;20230;-65
2022/01/16 12:20:25;;;;;;;25.35;19.55;;;6.80;99.90;;;;;;5031617;28;20234;-64
2022/01/16 12:22:55;;;;;;;25.15;20.15;;;6.90;99.90;;;;;;5032264;28;20220;-65
2022/01/16 12:25:24;;;;;;;26.13;20.42;;;6.90;99.90;;;;;;5032081;28;20232;-65
2022/01/16 12:27:53;;;;;;;27.88;20.42;;;6.90;99.90;;;;;;5032280;28;20229;-64
2022/01/16 12:30:32;;;;;;;27.00;20.98;;;7.00;99.90;;;;;;5031692;28;20588;-65
2022/01/16 12:33:08;;;;;;;26.85;20.15;;;7.00;99.90;;;;;;5031752;28;20337;-65
2022/01/16 12:36:10;;;;;;;28.73;23.00;;;7.00;99.90;;;;;;5032108;28;20304;-65
2022/01/16 12:38:48;;;;;;;32.17;22.42;;;7.00;99.90;;;;;;5033276;28;20269;-65
2022/01/16 12:41:18;;;;;;;27.35;20.13;;;7.10;99.90;;;;;;5036007;28;20230;-66
2022/01/16 12:43:52;;;;;;;28.02;20.63;;;7.20;99.90;;;;;;5035642;28;20620;-65
2022/01/16 12:46:22;;;;;;;26.67;19.13;;;7.10;99.90;;;;;;5035621;28;20691;-65
2022/01/16 12:48:52;;;;;;;25.65;18.95;;;7.10;99.90;;;;;;5035431;28;20227;-65
2022/01/16 12:51:21;;;;;;;27.83;19.20;;;7.10;99.90;;;;;;5035663;28;20237;-65
2022/01/16 12:53:49;;;;;;;29.15;19.92;;;7.10;99.90;;;;;;5035219;28;20621;-65
2022/01/16 12:56:21;;;;;;;29.60;21.98;;;7.10;99.90;;;;;;5035479;28;20244;-65
2022/01/16 12:58:49;;;;;;;29.67;23.45;;;7.20;99.90;;;;;;5034973;28;20260;-65
2022/01/16 13:01:16;;;;;;;35.67;23.48;;;7.30;99.90;;;;;;5035254;28;20235;-65
2022/01/16 13:03:44;;;;;;;25.52;19.65;;;7.30;99.90;;;;;;5034971;28;20586;-65
2022/01/16 13:06:21;;;;;;;28.90;21.67;;;7.40;99.90;;;;;;5035217;28;20232;-65
2022/01/16 13:09:05;;;;;;;25.80;21.83;;;7.40;99.90;;;;;;5034277;28;20229;-65
2022/01/16 13:11:35;;;;;;;25.67;20.42;;;7.40;99.90;;;;;;5050351;28;20222;-65
2022/01/16 13:14:03;;;;;;;26.95;21.50;;;7.50;99.90;;;;;;5053279;28;20233;-64
2022/01/16 13:16:32;;;;;;;27.98;20.55;;;7.50;99.90;;;;;;5052841;28;20223;-65
2022/01/16 13:19:01;;;;;;;31.45;22.73;;;7.50;99.90;;;;;;5040308;28;20226;-64
2022/01/16 13:21:35;;;;;;;27.98;20.35;;;7.50;99.90;;;;;;5032860;28;20607;-64
2022/01/16 13:24:02;;;;;;;30.17;21.05;;;7.50;99.90;;;;;;5033270;28;20230;-65
2022/01/16 13:26:31;;;;;;;29.15;21.17;;;7.60;99.90;;;;;;5034577;28;20332;-65